Time;durP1;ratioP1;P1;durP2;ratioP2;P2;SDS_P1;SDS_P2;PMS_P1;PMS_P2;Temp;Humidity;BMP_temperature;BMP_pressure;BME280_temperature;BME280_humidity;BME280_pressure;Samples;Min_cycle;Max_cycle;Signal;HPM_P1;HPM_P2
2023/11/30 00:00:50;;;;;;;36.10;25.45;;;;;;;1.36;100.00;92794.50;5047365;28;20044;-77
2023/11/30 00:03:17;;;;;;;39.65;27.30;;;;;;;1.34;100.00;92798.91;5047690;28;20049;-77
2023/11/30 00:05:44;;;;;;;42.78;28.10;;;;;;;1.33;100.00;92804.94;5050475;28;20492;-78
2023/11/30 00:08:10;;;;;;;41.47;26.88;;;;;;;1.22;100.00;92790.91;5064186;28;20520;-77
2023/11/30 00:10:37;;;;;;;44.25;28.48;;;;;;;1.30;100.00;92803.50;5058530;28;20045;-77
2023/11/30 00:13:06;;;;;;;37.25;24.67;;;;;;;1.24;100.00;92800.88;5055276;28;20049;-77
2023/11/30 00:15:32;;;;;;;34.40;22.50;;;;;;;1.22;100.00;92811.16;5046334;28;20052;-77
2023/11/30 00:17:59;;;;;;;30.63;21.58;;;;;;;1.25;100.00;92813.34;5047504;28;20453;-77
2023/11/30 00:20:26;;;;;;;29.98;20.85;;;;;;;1.16;100.00;92811.78;5048973;28;20094;-78
2023/11/30 00:22:52;;;;;;;31.13;21.00;;;;;;;1.21;100.00;92814.63;5048182;28;20662;-77
2023/11/30 00:25:19;;;;;;;32.10;21.88;;;;;;;1.16;100.00;92821.91;5047383;28;20107;-77
2023/11/30 00:27:56;;;;;;;;;;;;;;;;;;;;;
2023/11/30 00:30:24;;;;;;;33.58;22.20;;;;;;;1.10;100.00;92818.28;5062135;28;20831;-78
2023/11/30 00:32:54;;;;;;;29.08;20.70;;;;;;;1.03;100.00;92812.28;5060614;28;20059;-77
2023/11/30 00:35:21;;;;;;;31.08;21.48;;;;;;;1.12;100.00;92828.25;5061040;28;20045;-77
2023/11/30 00:37:47;;;;;;;31.13;21.58;;;;;;;0.93;100.00;92804.88;5061143;28;20885;-77
2023/11/30 00:40:14;;;;;;;33.80;21.80;;;;;;;1.10;100.00;92833.44;5058497;28;20045;-77
2023/11/30 00:42:41;;;;;;;27.73;20.90;;;;;;;1.09;100.00;92831.88;5063811;28;20045;-77
2023/11/30 00:45:09;;;;;;;31.35;21.48;;;;;;;1.15;100.00;92843.88;5059751;28;20857;-77
2023/11/30 00:47:37;;;;;;;32.60;21.35;;;;;;;1.15;100.00;92843.88;5062358;28;20051;-77
2023/11/30 00:50:05;;;;;;;32.35;21.90;;;;;;;1.15;100.00;92856.53;5061976;28;20087;-77
2023/11/30 00:52:34;;;;;;;36.30;21.63;;;;;;;1.11;100.00;92846.91;5062694;28;20041;-77
2023/11/30 00:55:01;;;;;;;35.25;23.65;;;;;;;1.23;100.00;92862.50;5066130;28;20440;-78
2023/11/30 00:57:28;;;;;;;32.72;20.52;;;;;;;1.24;100.00;92859.06;5065649;28;20048;-77
2023/11/30 00:59:54;;;;;;;29.67;18.27;;;;;;;1.26;100.00;92852.88;5063982;28;20036;-77
2023/11/30 01:02:21;;;;;;;25.05;15.90;;;;;;;1.20;100.00;92844.19;5064076;28;20444;-77
2023/11/30 01:04:49;;;;;;;25.08;14.95;;;;;;;1.30;100.00;92859.19;5051106;28;20057;-77
2023/11/30 01:07:16;;;;;;;25.65;15.68;;;;;;;1.33;100.00;92856.34;5050011;28;20049;-77
2023/11/30 01:09:42;;;;;;;27.00;15.75;;;;;;;1.32;100.00;92856.50;5052371;28;20182;-77
2023/11/30 01:12:09;;;;;;;24.67;15.88;;;;;;;1.30;100.00;92848.28;5050318;28;20045;-77
2023/11/30 01:14:36;;;;;;;27.23;16.75;;;;;;;1.33;100.00;92861.41;5049592;28;20060;-77
2023/11/30 01:17:03;;;;;;;28.35;17.77;;;;;;;1.33;100.00;92853.81;5059238;28;20041;-77
2023/11/30 01:19:30;;;;;;;26.50;18.13;;;;;;;1.35;100.00;92861.25;5049720;28;20549;-77
2023/11/30 01:21:58;;;;;;;30.73;18.40;;;;;;;1.31;100.00;92847.34;5051966;28;20045;-77
2023/11/30 01:24:24;;;;;;;29.58;18.00;;;;;;;1.38;100.00;92857.59;5054960;28;20052;-77
2023/11/30 01:26:51;;;;;;;24.73;16.42;;;;;;;1.43;100.00;92862.97;5050735;28;20118;-77
2023/11/30 01:29:18;;;;;;;25.45;15.98;;;;;;;1.41;100.00;92858.06;5049768;28;20041;-77
2023/11/30 01:31:44;;;;;;;26.75;16.50;;;;;;;1.38;100.00;92863.44;5065737;28;20189;-78
2023/11/30 01:34:11;;;;;;;26.95;16.63;;;;;;;1.43;100.00;92862.97;5051291;28;20045;-78
2023/11/30 01:36:38;;;;;;;27.13;17.42;;;;;;;1.52;100.00;92864.50;5051870;28;20053;-77
2023/11/30 01:39:06;;;;;;;25.52;16.25;;;;;;;1.40;100.00;92866.63;5049448;28;20540;-77
2023/11/30 01:41:36;;;;;;;25.38;16.95;;;;;;;1.45;100.00;92858.53;5067196;28;20106;-78
2023/11/30 01:44:02;;;;;;;32.83;16.85;;;;;;;1.36;100.00;92857.75;5049270;28;20056;-78
2023/11/30 01:46:29;;;;;;;28.30;17.20;;;;;;;1.38;100.00;92862.66;5050696;28;20082;-77
2023/11/30 01:48:57;;;;;;;29.73;19.10;;;;;;;1.45;100.00;92863.59;5049778;28;20555;-78
2023/11/30 01:51:24;;;;;;;31.58;19.42;;;;;;;1.41;100.00;92858.06;5055584;28;20057;-77
2023/11/30 01:53:52;;;;;;;27.00;17.63;;;;;;;1.34;100.00;92859.66;5055227;28;20110;-77
2023/11/30 01:56:21;;;;;;;27.50;16.88;;;;;;;1.41;100.00;92845.41;5048271;28;20394;-77
2023/11/30 01:58:49;;;;;;;25.80;16.15;;;;;;;1.32;100.00;92851.44;5035387;28;20562;-76
2023/11/30 02:01:16;;;;;;;25.45;16.20;;;;;;;1.33;100.00;92853.00;5046526;28;20041;-76
2023/11/30 02:03:43;;;;;;;28.00;17.17;;;;;;;1.30;100.00;92853.34;5048959;28;20099;-78
2023/11/30 02:06:10;;;;;;;28.70;17.35;;;;;;;1.32;100.00;92857.31;5048501;28;20178;-77
2023/11/30 02:08:37;;;;;;;26.42;16.98;;;;;;;1.44;100.00;92869.63;5049380;28;20053;-77
2023/11/30 02:11:04;;;;;;;27.27;15.88;;;;;;;1.44;100.00;92870.38;5062736;28;20551;-77
2023/11/30 02:13:34;;;;;;;25.98;15.43;;;;;;;1.40;100.00;92861.56;5048097;28;20133;-76
2023/11/30 02:16:00;;;;;;;23.98;14.68;;;;;;;1.42;100.00;92863.91;5048757;28;20493;-76
2023/11/30 02:18:27;;;;;;;24.50;14.85;;;;;;;1.23;100.00;92852.41;5049179;28;20056;-77
2023/11/30 02:20:54;;;;;;;25.52;14.88;;;;;;;1.45;100.00;92883.84;5050802;28;20049;-77
2023/11/30 02:23:22;;;;;;;28.35;13.27;;;;;;;1.43;100.00;92878.94;5048558;28;20041;-77
2023/11/30 02:25:49;;;;;;;22.92;13.77;;;;;;;1.47;100.00;92879.41;5048397;28;20075;-78
2023/11/30 02:28:19;;;;;;;26.55;15.05;;;;;;;1.42;100.00;92886.69;5048285;28;20045;-77
2023/11/30 02:30:48;;;;;;;25.92;15.32;;;;;;;1.41;100.00;92888.44;5048592;28;20095;-76
2023/11/30 02:33:15;;;;;;;24.50;14.68;;;;;;;1.27;100.00;92872.19;5048943;28;20131;-76
2023/11/30 02:35:42;;;;;;;25.00;14.77;;;;;;;1.42;100.00;92884.16;5048483;28;20041;-77
2023/11/30 02:38:08;;;;;;;23.15;15.15;;;;;;;1.35;100.00;92881.50;5048673;28;20437;-76
2023/11/30 02:40:36;;;;;;;22.40;14.05;;;;;;;1.41;100.00;92890.97;5053629;28;20072;-76
2023/11/30 02:43:03;;;;;;;27.38;15.98;;;;;;;1.49;100.00;92892.69;5049413;28;20045;-78
2023/11/30 02:45:30;;;;;;;25.75;16.40;;;;;;;1.49;100.00;92902.81;5050559;28;20049;-78
2023/11/30 02:47:57;;;;;;;26.15;15.57;;;;;;;1.37;100.00;92881.31;5048506;28;20049;-78
2023/11/30 02:50:23;;;;;;;27.92;16.95;;;;;;;1.53;100.00;92904.06;5048083;28;20486;-78
2023/11/30 02:52:50;;;;;;;23.25;13.70;;;;;;;1.56;100.00;92908.00;5057769;28;20126;-78
2023/11/30 02:55:17;;;;;;;22.48;13.30;;;;;;;1.44;100.00;92905.81;5047970;28;20049;-78
2023/11/30 02:57:45;;;;;;;24.15;14.43;;;;;;;1.41;100.00;92902.81;5050364;28;20559;-78
2023/11/30 03:00:12;;;;;;;24.33;13.98;;;;;;;1.48;100.00;92920.69;5048367;28;20795;-78
2023/11/30 03:02:39;;;;;;;23.85;13.95;;;;;;;1.40;100.00;92912.19;5047887;28;20049;-78
2023/11/30 03:05:06;;;;;;;27.73;14.30;;;;;;;1.47;100.00;92909.78;5052152;28;20061;-78
2023/11/30 03:07:33;;;;;;;27.60;16.02;;;;;;;1.45;100.00;92902.34;5050849;28;20045;-77
2023/11/30 03:10:00;;;;;;;25.52;15.50;;;;;;;1.38;100.00;92896.34;5047432;28;20536;-77
2023/11/30 03:12:26;;;;;;;24.08;13.75;;;;;;;1.49;100.00;92900.28;5050854;28;20044;-77
2023/11/30 03:14:55;;;;;;;20.92;12.65;;;;;;;1.42;100.00;92912.00;5047952;28;20049;-77
2023/11/30 03:17:21;;;;;;;22.48;13.70;;;;;;;1.32;100.00;92909.63;5048543;28;20095;-77
2023/11/30 03:19:48;;;;;;;22.33;12.80;;;;;;;1.22;100.00;92898.91;5049775;28;20045;-76
2023/11/30 03:22:15;;;;;;;19.20;12.25;;;;;;;1.28;100.00;92904.13;5047714;28;20048;-76
2023/11/30 03:24:42;;;;;;;19.17;12.63;;;;;;;1.35;100.00;92911.06;5049282;28;20048;-75
2023/11/30 03:27:11;;;;;;;17.25;12.02;;;;;;;1.30;100.00;92914.84;5047843;28;20041;-78
2023/11/30 03:29:38;;;;;;;17.63;11.25;;;;;;;1.36;100.00;92908.38;5048342;28;20049;-78
2023/11/30 03:32:06;;;;;;;18.52;12.23;;;;;;;1.33;100.00;92914.53;5051906;28;20056;-77
2023/11/30 03:34:33;;;;;;;18.15;11.90;;;;;;;1.32;100.00;92922.28;5050456;28;20044;-77
2023/11/30 03:37:00;;;;;;;22.33;13.00;;;;;;;1.20;100.00;92921.81;5054437;28;20502;-77
2023/11/30 03:39:27;;;;;;;22.20;13.50;;;;;;;1.12;100.00;92920.13;5049113;28;20098;-77
2023/11/30 03:41:54;;;;;;;20.45;12.23;;;;;;;0.33;100.00;92906.09;5047621;28;20049;-77
2023/11/30 03:44:20;;;;;;;17.77;12.07;;;;;;;0.23;100.00;92920.63;5047888;28;20056;-77
2023/11/30 03:46:47;;;;;;;21.80;12.18;;;;;;;0.30;100.00;92918.25;5047554;28;20564;-76
2023/11/30 03:49:28;;;;;;;22.52;13.27;;;;;;;-0.24;100.00;92881.47;5050345;28;20114;-76
2023/11/30 03:52:03;;;;;;;23.45;13.35;;;;;;;-1.29;100.00;92745.22;5056131;28;20147;-76
2023/11/30 03:54:30;;;;;;;20.30;12.63;;;;;;;-0.15;100.00;92931.03;5047264;28;20063;-77
2023/11/30 03:56:57;;;;;;;24.38;14.27;;;;;;;-0.23;100.00;92923.44;5048729;28;20118;-76
2023/11/30 03:59:24;;;;;;;25.30;13.40;;;;;;;-0.08;100.00;92932.03;5061578;28;20053;-77
2023/11/30 04:01:50;;;;;;;24.55;13.57;;;;;;;-0.01;100.00;92942.31;5051865;28;20074;-76
2023/11/30 04:04:18;;;;;;;23.63;14.20;;;;;;;-0.05;100.00;92936.78;5047897;28;20840;-77
2023/11/30 04:06:47;;;;;;;25.67;15.13;;;;;;;0.22;100.00;92924.06;5051185;28;20078;-77
2023/11/30 04:09:14;;;;;;;24.55;14.95;;;;;;;0.38;100.00;92919.06;5047050;28;20044;-77
2023/11/30 04:11:40;;;;;;;30.15;16.70;;;;;;;0.37;100.00;92906.59;5054857;28;20111;-77
2023/11/30 04:14:08;;;;;;;30.83;18.50;;;;;;;0.44;100.00;92911.81;5050992;28;20048;-77
2023/11/30 04:16:37;;;;;;;37.88;19.80;;;;;;;0.49;100.00;92912.94;5047002;28;20494;-76
2023/11/30 04:19:03;;;;;;;28.48;18.02;;;;;;;0.70;100.00;92904.13;5061720;28;20383;-76
2023/11/30 04:21:32;;;;;;;25.60;15.27;;;;;;;0.61;100.00;92882.31;5047041;28;20045;-77
2023/11/30 04:23:59;;;;;;;30.90;16.52;;;;;;;0.80;100.00;92909.03;5049459;28;20049;-78
2023/11/30 04:26:26;;;;;;;24.23;15.15;;;;;;;0.91;100.00;92906.19;5052007;28;20052;-78
2023/11/30 04:28:53;;;;;;;24.40;15.07;;;;;;;1.00;100.00;92906.19;5056595;28;20041;-78
2023/11/30 04:31:20;;;;;;;28.33;15.45;;;;;;;1.08;100.00;92912.97;5062240;28;20045;-78
2023/11/30 04:33:47;;;;;;;34.30;18.25;;;;;;;1.12;100.00;92904.94;5057738;28;20552;-79
2023/11/30 04:36:14;;;;;;;33.72;20.75;;;;;;;1.12;100.00;92904.13;5051169;28;20063;-79
2023/11/30 04:38:43;;;;;;;40.15;22.65;;;;;;;1.19;100.00;92915.19;5050747;28;20075;-78
2023/11/30 04:41:09;;;;;;;39.47;21.90;;;;;;;1.27;100.00;92917.72;5054180;28;20049;-78
2023/11/30 04:43:37;;;;;;;42.35;24.30;;;;;;;1.26;100.00;92910.28;5054290;28;20048;-77
2023/11/30 04:46:04;;;;;;;73.00;36.83;;;;;;;1.09;100.00;92902.72;5057384;28;20605;-78
2023/11/30 04:48:31;;;;;;;55.22;30.13;;;;;;;1.22;100.00;92911.53;5050744;28;20048;-79
2023/11/30 04:50:57;;;;;;;55.85;29.58;;;;;;;1.27;100.00;92916.91;5060513;28;20143;-78
2023/11/30 04:53:24;;;;;;;55.33;30.27;;;;;;;1.31;100.00;92928.31;5051123;28;20153;-78
2023/11/30 04:55:52;;;;;;;44.65;30.23;;;;;;;1.37;100.00;92917.53;5050068;28;20529;-78
2023/11/30 04:58:19;;;;;;;29.40;19.38;;;;;;;1.18;100.00;92901.75;5054699;28;20037;-79
2023/11/30 05:00:47;;;;;;;32.13;20.77;;;;;;;1.44;100.00;92930.34;5050661;28;20118;-78
2023/11/30 05:03:14;;;;;;;25.58;17.45;;;;;;;1.35;100.00;92949.81;5054826;28;20627;-78
2023/11/30 05:05:41;;;;;;;30.70;18.63;;;;;;;1.20;100.00;92949.66;5050738;28;20053;-78
2023/11/30 05:08:08;;;;;;;23.30;15.98;;;;;;;1.36;100.00;92941.28;5056918;28;20045;-78
2023/11/30 05:10:34;;;;;;;24.83;16.55;;;;;;;1.48;100.00;92946.78;5055910;28;20056;-78
2023/11/30 05:13:03;;;;;;;22.42;15.82;;;;;;;1.50;100.00;92942.38;5055161;28;20052;-78
2023/11/30 05:15:29;;;;;;;24.50;16.42;;;;;;;1.59;100.00;92955.81;5050732;28;20103;-77
2023/11/30 05:17:56;;;;;;;26.85;17.00;;;;;;;1.64;100.00;92963.72;5050278;28;20049;-76
2023/11/30 05:20:23;;;;;;;63.08;32.75;;;;;;;1.70;100.00;92969.84;5053770;28;20055;-76
2023/11/30 05:22:50;;;;;;;32.30;20.95;;;;;;;1.57;100.00;92973.69;5050805;28;20049;-76
2023/11/30 05:25:17;;;;;;;29.88;18.58;;;;;;;1.52;100.00;92970.84;5057030;28;20052;-76
2023/11/30 05:27:43;;;;;;;31.00;20.38;;;;;;;1.64;100.00;92973.84;5052237;28;20055;-76
2023/11/30 05:30:12;;;;;;;30.70;21.23;;;;;;;1.54;100.00;92958.81;5055158;28;20049;-76
2023/11/30 05:32:40;;;;;;;33.90;21.15;;;;;;;1.29;100.00;92973.25;5060471;28;20055;-77
2023/11/30 05:35:08;;;;;;;26.73;16.88;;;;;;;0.69;100.00;92978.38;5054845;28;20426;-79
2023/11/30 05:37:35;;;;;;;32.42;20.05;;;;;;;0.55;100.00;92977.22;5055318;28;20053;-78
2023/11/30 05:40:03;;;;;;;28.40;17.48;;;;;;;0.36;100.00;92990.91;5060604;28;20060;-77
2023/11/30 05:42:30;;;;;;;46.88;28.75;;;;;;;0.62;100.00;92995.09;5054922;28;20048;-78
2023/11/30 05:44:58;;;;;;;39.00;23.08;;;;;;;0.31;100.00;92981.28;5050476;28;20058;-77
2023/11/30 05:47:26;;;;;;;29.95;19.80;;;;;;;-0.28;100.00;92954.16;5054333;28;20052;-77
2023/11/30 05:49:54;;;;;;;31.95;18.42;;;;;;;-0.07;100.00;92974.00;5052801;28;20451;-77
2023/11/30 05:52:21;;;;;;;31.98;19.75;;;;;;;0.12;100.00;92992.41;5055065;28;20092;-77
2023/11/30 05:54:48;;;;;;;29.38;19.02;;;;;;;-0.19;100.00;92942.41;5051078;28;20045;-77
2023/11/30 05:57:14;;;;;;;31.05;19.35;;;;;;;0.01;100.00;92980.84;5047897;28;20128;-77
2023/11/30 05:59:41;;;;;;;30.25;20.23;;;;;;;0.04;100.00;92974.69;5049604;28;20567;-77
2023/11/30 06:02:10;;;;;;;36.53;23.27;;;;;;;0.31;100.00;92983.00;5049427;28;20041;-76
2023/11/30 06:04:38;;;;;;;36.22;21.13;;;;;;;0.25;100.00;92986.94;5053011;28;20055;-77
2023/11/30 06:07:05;;;;;;;42.83;24.42;;;;;;;0.46;100.00;92971.38;5057723;28;20045;-77
2023/11/30 06:09:32;;;;;;;38.70;23.15;;;;;;;0.48;100.00;92977.06;5057655;28;20059;-77
2023/11/30 06:11:59;;;;;;;41.65;25.08;;;;;;;0.50;100.00;92982.75;5056760;28;20052;-77
2023/11/30 06:14:25;;;;;;;46.10;26.90;;;;;;;0.64;100.00;92975.50;5064512;28;20501;-77
2023/11/30 06:16:52;;;;;;;47.15;24.83;;;;;;;0.75;100.00;92976.97;5048462;28;20048;-77
2023/11/30 06:19:19;;;;;;;46.47;25.88;;;;;;;0.96;100.00;92979.06;5051412;28;20056;-77
2023/11/30 06:21:47;;;;;;;46.10;30.00;;;;;;;0.48;100.00;92946.75;5055843;28;20489;-78
2023/11/30 06:24:14;;;;;;;42.70;26.75;;;;;;;0.68;100.00;92971.75;5055517;28;20044;-77
2023/11/30 06:26:41;;;;;;;50.88;31.23;;;;;;;0.91;100.00;92981.25;5052642;28;20053;-77
2023/11/30 06:29:10;;;;;;;51.15;31.38;;;;;;;1.17;100.00;92998.81;5053526;28;20611;-76
2023/11/30 06:31:37;;;;;;;51.72;34.83;;;;;;;1.35;100.00;93009.75;5051150;28;20164;-77
2023/11/30 06:34:04;;;;;;;55.33;34.17;;;;;;;1.40;100.00;92998.22;5056878;28;20072;-77
2023/11/30 06:36:31;;;;;;;45.88;31.25;;;;;;;1.51;100.00;93002.16;5051313;28;20076;-77
2023/11/30 06:38:59;;;;;;;44.45;27.65;;;;;;;1.55;100.00;93000.09;5050920;28;20126;-77
2023/11/30 06:41:26;;;;;;;47.50;29.77;;;;;;;1.69;100.00;93021.44;5051096;28;20056;-77
2023/11/30 06:43:52;;;;;;;51.70;32.17;;;;;;;1.79;100.00;93018.75;5049574;28;20842;-78
2023/11/30 06:46:20;;;;;;;54.33;34.17;;;;;;;1.84;100.00;93022.41;5050500;28;20065;-78
2023/11/30 06:48:47;;;;;;;56.60;35.90;;;;;;;1.93;100.00;93024.91;5053946;28;20041;-77
2023/11/30 06:51:14;;;;;;;58.53;36.53;;;;;;;1.97;100.00;93019.38;5048295;28;20166;-77
2023/11/30 06:53:41;;;;;;;61.10;37.22;;;;;;;1.97;100.00;93021.09;5053979;28;20135;-77
2023/11/30 06:56:11;;;;;;;61.15;39.58;;;;;;;1.80;100.00;93022.88;5063329;28;20746;-77
2023/11/30 06:58:38;;;;;;;77.75;46.78;;;;;;;1.72;100.00;93031.28;5049896;28;20498;-78
2023/11/30 07:01:06;;;;;;;84.10;49.03;;;;;;;1.88;100.00;93038.06;5056243;28;20130;-77
2023/11/30 07:03:33;;;;;;;73.72;46.17;;;;;;;1.90;100.00;93036.13;5048093;28;20473;-78
2023/11/30 07:05:59;;;;;;;72.75;46.45;;;;;;;1.96;100.00;93038.06;5048055;28;20052;-78
2023/11/30 07:08:26;;;;;;;51.53;33.40;;;;;;;1.87;100.00;93036.47;5048077;28;20090;-77
2023/11/30 07:10:53;;;;;;;51.75;32.53;;;;;;;1.95;100.00;93033.91;5061772;28;20098;-77
2023/11/30 07:13:21;;;;;;;46.08;28.98;;;;;;;2.02;100.00;93023.94;5048292;28;20045;-77
2023/11/30 07:15:48;;;;;;;46.50;26.92;;;;;;;2.08;100.00;93025.06;5048542;28;20498;-77
2023/11/30 07:18:14;;;;;;;53.85;31.30;;;;;;;2.14;100.00;93024.41;5054001;28;20075;-78
2023/11/30 07:20:41;;;;;;;51.35;30.85;;;;;;;2.17;100.00;93033.41;5047510;28;20045;-77
2023/11/30 07:23:10;;;;;;;43.55;29.00;;;;;;;2.19;100.00;93031.50;5047379;28;20049;-77
2023/11/30 07:25:37;;;;;;;41.30;24.98;;;;;;;2.32;100.00;93052.06;5052491;28;20053;-77
2023/11/30 07:28:04;;;;;;;48.67;28.52;;;;;;;2.43;100.00;93048.38;5065633;28;20526;-77
2023/11/30 07:30:32;;;;;;;50.75;29.75;;;;;;;2.45;100.00;93043.16;5060762;28;20090;-77
2023/11/30 07:32:59;;;;;;;43.30;27.98;;;;;;;2.44;100.00;93031.44;5047502;28;20053;-77
2023/11/30 07:35:27;;;;;;;55.67;32.80;;;;;;;2.64;100.00;93052.13;5047667;28;20048;-77
2023/11/30 07:37:54;;;;;;;107.80;71.72;;;;;;;2.71;100.00;93047.16;5047557;28;20140;-77
2023/11/30 07:40:24;;;;;;;90.45;67.53;;;;;;;2.70;100.00;93050.66;5051395;28;20052;-77
2023/11/30 07:42:50;;;;;;;78.63;55.38;;;;;;;2.81;100.00;93047.75;5051435;28;20051;-77
2023/11/30 07:45:17;;;;;;;65.20;43.83;;;;;;;2.83;100.00;93053.47;5054003;28;20044;-77
2023/11/30 07:47:45;;;;;;;52.13;34.45;;;;;;;2.86;100.00;93053.13;5052801;28;20044;-78
2023/11/30 07:50:15;;;;;;;50.22;31.17;;;;;;;2.85;100.00;93041.41;5063121;28;20441;-78
2023/11/30 07:52:42;;;;;;;40.90;23.83;;;;;;;2.84;100.00;93037.28;5061322;28;20063;-78
2023/11/30 07:55:10;;;;;;;23.30;13.98;;;;;;;2.75;100.00;93044.16;5057196;28;20049;-78
2023/11/30 07:57:36;;;;;;;18.55;12.77;;;;;;;2.74;100.00;93046.84;5049615;28;20056;-78
2023/11/30 08:00:05;;;;;;;21.38;12.43;;;;;;;2.73;100.00;93040.97;5058805;28;20044;-78
2023/11/30 08:02:34;;;;;;;44.63;24.95;;;;;;;2.65;100.00;93041.78;5051019;28;20103;-78
2023/11/30 08:05:02;;;;;;;37.50;18.38;;;;;;;2.72;100.00;93041.94;5062847;28;20079;-78
2023/11/30 08:07:31;;;;;;;35.38;21.58;;;;;;;2.84;100.00;93044.09;5057582;28;20513;-79
2023/11/30 08:09:58;;;;;;;30.40;18.63;;;;;;;2.97;100.00;93041.03;5053865;28;20090;-78
2023/11/30 08:12:24;;;;;;;39.25;26.85;;;;;;;2.86;100.00;93027.75;5051410;28;20067;-78
2023/11/30 08:14:51;;;;;;;44.65;28.15;;;;;;;3.06;100.00;93052.72;5054939;28;20497;-78
2023/11/30 08:17:18;;;;;;;29.30;19.13;;;;;;;3.01;100.00;93039.75;5059186;28;20489;-78
2023/11/30 08:19:45;;;;;;;31.65;17.25;;;;;;;2.98;100.00;93056.09;5055222;28;20053;-78
2023/11/30 08:22:13;;;;;;;28.08;14.23;;;;;;;2.94;100.00;93055.66;5051706;28;20052;-78
2023/11/30 08:24:40;;;;;;;28.90;16.90;;;;;;;3.06;100.00;93050.97;5052400;28;20053;-78
2023/11/30 08:27:06;;;;;;;26.63;16.45;;;;;;;3.11;100.00;93044.59;5052195;28;20556;-78
2023/11/30 08:29:36;;;;;;;28.08;17.63;;;;;;;3.13;100.00;93058.69;5050272;28;20052;-78
2023/11/30 08:32:03;;;;;;;31.98;19.95;;;;;;;3.21;100.00;93065.47;5052138;28;20140;-77
2023/11/30 08:34:30;;;;;;;26.27;16.42;;;;;;;3.16;100.00;93060.13;5062984;28;20095;-77
2023/11/30 08:36:57;;;;;;;27.85;17.23;;;;;;;3.29;100.00;93047.66;5054851;28;20502;-77
2023/11/30 08:39:27;;;;;;;26.30;17.33;;;;;;;3.25;100.00;93026.13;5054653;28;20060;-77
2023/11/30 08:41:54;;;;;;;26.33;16.23;;;;;;;3.44;100.00;93037.56;5053601;28;20134;-77
2023/11/30 08:44:22;;;;;;;24.60;15.63;;;;;;;3.48;100.00;93018.47;5055681;28;21134;-77
2023/11/30 08:46:49;;;;;;;26.65;15.70;;;;;;;3.86;100.00;93014.38;5052733;28;20055;-77
2023/11/30 08:49:16;;;;;;;21.55;14.18;;;;;;;3.72;100.00;93021.00;5055727;28;20049;-77
2023/11/30 08:51:43;;;;;;;39.40;26.05;;;;;;;3.81;100.00;93003.94;5051439;28;20052;-77
2023/11/30 08:54:10;;;;;;;31.92;21.63;;;;;;;3.95;100.00;93010.78;5056808;28;20316;-77
2023/11/30 08:56:38;;;;;;;40.90;28.90;;;;;;;4.11;100.00;93009.03;5053049;28;20049;-77
2023/11/30 08:59:05;;;;;;;26.85;20.00;;;;;;;4.13;100.00;93005.34;5051445;28;20040;-77
2023/11/30 09:01:32;;;;;;;31.98;22.65;;;;;;;4.09;100.00;92995.72;5054208;28;20093;-77
2023/11/30 09:04:02;;;;;;;64.43;40.47;;;;;;;4.20;100.00;92999.56;5057654;28;20052;-77
2023/11/30 09:06:29;;;;;;;33.40;23.10;;;;;;;4.18;100.00;92981.97;5054041;28;20414;-77
2023/11/30 09:08:56;;;;;;;30.33;21.77;;;;;;;4.23;100.00;92982.22;5050367;28;20418;-77
2023/11/30 09:11:23;;;;;;;29.58;20.63;;;;;;;4.41;100.00;92979.31;5054203;28;20053;-77
2023/11/30 09:13:53;;;;;;;18.23;13.40;;;;;;;4.27;100.00;92955.47;5051804;28;20532;-77
2023/11/30 09:16:19;;;;;;;20.92;15.50;;;;;;;4.33;100.00;92943.00;5051337;28;20048;-77
2023/11/30 09:18:46;;;;;;;21.83;14.50;;;;;;;4.51;100.00;92963.00;5050761;28;20094;-77
2023/11/30 09:21:13;;;;;;;25.27;18.70;;;;;;;4.44;100.00;92942.56;5052312;28;20049;-77
2023/11/30 09:23:39;;;;;;;19.67;14.57;;;;;;;4.44;100.00;92931.63;5052771;28;20056;-78
2023/11/30 09:26:07;;;;;;;19.40;14.02;;;;;;;4.71;100.00;92942.84;5056838;28;20049;-77
2023/11/30 09:28:37;;;;;;;21.55;14.18;;;;;;;4.81;100.00;92948.44;5052336;28;20059;-78
2023/11/30 09:31:05;;;;;;;19.73;10.98;;;;;;;4.98;100.00;92947.41;5049941;28;20083;-78
2023/11/30 09:33:32;;;;;;;48.00;25.88;;;;;;;5.23;100.00;92945.28;5050783;28;20044;-77
2023/11/30 09:36:01;;;;;;;28.83;18.38;;;;;;;5.21;100.00;92937.84;5056955;28;20580;-77
2023/11/30 09:38:27;;;;;;;36.58;21.00;;;;;;;5.44;100.00;92939.41;5052934;28;20079;-77
2023/11/30 09:40:54;;;;;;;47.92;25.65;;;;;;;5.51;100.00;92931.00;5057108;28;20044;-78
2023/11/30 09:43:21;;;;;;;37.72;19.92;;;;;;;5.48;100.00;92904.16;5053387;28;20103;-77
2023/11/30 09:45:49;;;;;;;20.67;13.60;;;;;;;5.91;100.00;92938.91;5050508;28;20052;-76
2023/11/30 09:48:17;;;;;;;44.03;24.42;;;;;;;6.03;100.00;92930.75;5053012;28;20498;-77
2023/11/30 09:50:44;;;;;;;38.08;20.45;;;;;;;6.15;100.00;92922.41;5052577;28;20052;-77
2023/11/30 09:53:11;;;;;;;25.63;11.85;;;;;;;6.44;100.00;92931.75;5055037;28;20457;-77
2023/11/30 09:55:39;;;;;;;46.40;23.13;;;;;;;6.48;100.00;92920.94;5054078;28;20098;-77
2023/11/30 09:58:05;;;;;;;22.48;11.35;;;;;;;6.67;100.00;92934.75;5054727;28;20608;-77
2023/11/30 10:00:32;;;;;;;55.08;27.35;;;;;;;6.73;100.00;92927.31;5059061;28;20048;-77
2023/11/30 10:02:59;;;;;;;38.63;21.23;;;;;;;6.80;100.00;92931.44;5050960;28;20517;-77
2023/11/30 10:05:28;;;;;;;35.03;19.33;;;;;;;6.87;100.00;92920.47;5054292;28;20040;-78
2023/11/30 10:07:58;;;;;;;28.83;15.80;;;;;;;7.11;100.00;92918.31;5049410;28;20071;-78
2023/11/30 10:10:25;;;;;;;17.67;11.05;;;;;;;7.15;100.00;92906.75;5060837;28;20127;-77
2023/11/30 10:12:52;;;;;;;32.83;18.27;;;;;;;7.14;100.00;92912.84;5052971;28;20048;-77
2023/11/30 10:15:20;;;;;;;30.50;16.23;;;;;;;7.08;100.00;92909.28;5053599;28;20057;-77
2023/11/30 10:17:48;;;;;;;19.75;11.32;;;;;;;7.02;100.00;92899.84;5051963;28;20595;-77
2023/11/30 10:20:16;;;;;;;24.70;14.25;;;;;;;6.91;100.00;92885.91;5050832;28;20064;-77
2023/11/30 10:22:44;;;;;;;20.27;11.13;;;;;;;6.88;100.00;92901.59;5050612;28;20131;-77
2023/11/30 10:25:12;;;;;;;43.85;23.15;;;;;;;6.78;100.00;92882.38;5052067;28;20133;-77
2023/11/30 10:27:41;;;;;;;28.92;15.88;;;;;;;6.95;100.00;92894.75;5055238;28;20095;-75
2023/11/30 10:30:11;;;;;;;27.40;16.65;;;;;;;7.00;100.00;92882.19;5064562;28;20055;-75
2023/11/30 10:32:40;;;;;;;23.58;14.32;;;;;;;7.20;100.00;92904.41;5051689;28;20458;-75
2023/11/30 10:35:09;;;;;;;18.13;10.68;;;;;;;7.29;100.00;92903.22;5049905;28;20132;-75
2023/11/30 10:37:50;;;;;;;41.83;22.02;;;;;;;7.36;100.00;92915.97;5053381;28;20118;-75
2023/11/30 10:40:19;;;;;;;15.00;9.52;;;;;;;7.41;100.00;92928.97;5048493;28;20084;-75
2023/11/30 10:42:49;;;;;;;56.30;30.55;;;;;;;7.50;100.00;92924.44;5049267;28;20056;-75
2023/11/30 10:45:16;;;;;;;21.65;13.73;;;;;;;7.55;100.00;92918.75;5050908;28;20071;-74
2023/11/30 10:47:43;;;;;;;34.58;19.05;;;;;;;7.62;100.00;92930.53;5061431;28;20052;-75
2023/11/30 10:50:11;;;;;;;37.63;21.75;;;;;;;7.69;100.00;92925.41;5056374;28;20228;-75
2023/11/30 10:52:39;;;;;;;52.40;31.20;;;;;;;7.80;100.00;92924.03;5055223;28;20048;-75
2023/11/30 10:55:10;;;;;;;26.38;16.92;;;;;;;7.86;100.00;92897.66;5062695;28;20051;-75
2023/11/30 10:57:40;;;;;;;27.70;18.25;;;;;;;7.92;100.00;92898.59;5058157;28;20056;-74
2023/11/30 11:00:11;;;;;;;21.48;13.57;;;;;;;7.90;100.00;92882.69;5052774;28;20056;-75
2023/11/30 11:02:39;;;;;;;16.50;11.40;;;;;;;7.91;100.00;92886.03;5051784;28;20053;-74
2023/11/30 11:05:09;;;;;;;16.52;9.82;;;;;;;8.09;100.00;92890.50;5052603;28;20055;-75
2023/11/30 11:07:37;;;;;;;17.00;9.95;;;;;;;8.18;100.00;92884.19;5048694;28;20052;-76
2023/11/30 11:10:06;;;;;;;12.13;8.68;;;;;;;8.22;100.00;92882.78;5051233;28;20045;-76
2023/11/30 11:12:40;;;;;;;15.57;11.00;;;;;;;8.29;100.00;92865.63;5054283;28;20048;-76
2023/11/30 11:15:08;;;;;;;13.63;8.18;;;;;;;8.25;100.00;92872.13;5050280;28;20056;-76
2023/11/30 11:17:35;;;;;;;10.55;7.55;;;;;;;8.21;100.00;92865.06;5048669;28;20049;-76
2023/11/30 11:20:05;;;;;;;11.18;7.10;;;;;;;8.18;100.00;92852.72;5048681;28;20056;-77